createdAt,value
2018-08-17T00:00:40.520Z,82
2018-08-17T00:01:42.544Z,82
2018-08-17T00:02:45.105Z,82
2018-08-17T00:03:47.112Z,82
2018-08-17T00:04:49.118Z,82
2018-08-17T00:05:51.127Z,82
2018-08-17T00:06:53.417Z,82
2018-08-17T00:07:55.427Z,82
2018-08-17T00:08:57.719Z,82
2018-08-17T00:10:00.011Z,82
2018-08-17T00:11:02.580Z,83
2018-08-17T00:12:04.591Z,83
2018-08-17T00:13:06.597Z,83
2018-08-17T00:14:08.608Z,83
2018-08-17T00:15:10.618Z,83
2018-08-17T00:16:12.626Z,83
2018-08-17T00:17:14.632Z,83
2018-08-17T00:18:16.647Z,83
2018-08-17T00:19:18.934Z,84
2018-08-17T00:20:20.943Z,84
2018-08-17T00:21:22.955Z,84
2018-08-17T00:22:24.959Z,84
2018-08-17T00:23:26.971Z,84
2018-08-17T00:24:29.277Z,84
2018-08-17T00:25:31.292Z,84
2018-08-17T00:26:33.303Z,84
2018-08-17T00:27:35.311Z,84
2018-08-17T00:28:37.604Z,85
2018-08-17T00:29:39.614Z,85
2018-08-17T00:30:41.621Z,86
2018-08-17T00:31:44.292Z,86
2018-08-17T00:32:46.303Z,87
2018-08-17T00:33:48.313Z,86
2018-08-17T00:34:50.324Z,86
2018-08-17T00:35:52.645Z,87
2018-08-17T00:36:54.957Z,87
2018-08-17T00:37:56.993Z,86
2018-08-17T00:38:59.014Z,86
2018-08-17T00:40:01.057Z,89
2018-08-17T00:41:03.089Z,87
2018-08-17T00:42:05.122Z,86
2018-08-17T00:43:07.163Z,86
2018-08-17T00:44:09.190Z,87
2018-08-17T00:45:11.510Z,88
2018-08-17T00:46:13.541Z,88
2018-08-17T00:47:15.890Z,89
2018-08-17T00:48:17.913Z,89
2018-08-17T00:49:19.950Z,90
2018-08-17T00:50:21.993Z,90
2018-08-17T00:51:24.018Z,89
2018-08-17T00:52:26.063Z,89
2018-08-17T00:53:28.388Z,91
2018-08-17T00:54:30.418Z,90
2018-08-17T00:55:32.752Z,90
2018-08-17T00:56:34.779Z,90
2018-08-17T00:57:36.807Z,90
2018-08-17T00:58:38.843Z,90
2018-08-17T00:59:41.192Z,91
2018-08-17T01:00:43.800Z,91
2018-08-17T01:01:45.845Z,92
2018-08-17T01:02:47.879Z,91
2018-08-17T01:03:49.904Z,92
2018-08-17T01:04:51.944Z,91
2018-08-17T01:05:53.986Z,91
2018-08-17T01:06:56.020Z,91
2018-08-17T01:07:58.064Z,91
2018-08-17T01:09:00.092Z,91
2018-08-17T01:10:02.125Z,91
2018-08-17T01:11:04.538Z,91
2018-08-17T01:12:06.583Z,91
2018-08-17T01:13:08.607Z,91
2018-08-17T01:14:10.649Z,92
2018-08-17T01:15:13.645Z,91
2018-08-17T01:16:15.674Z,91
2018-08-17T01:17:17.718Z,92
2018-08-17T01:18:19.749Z,91
2018-08-17T01:19:21.790Z,92
2018-08-17T01:20:23.816Z,92
2018-08-17T01:21:25.870Z,92
2018-08-17T01:22:28.288Z,91
2018-08-17T01:23:30.319Z,91
2018-08-17T01:24:32.360Z,91
2018-08-17T01:25:34.382Z,92
2018-08-17T01:26:36.421Z,92
2018-08-17T01:27:38.460Z,92
2018-08-17T01:28:40.507Z,92
2018-08-17T01:29:42.812Z,93
2018-08-17T01:30:44.849Z,93
2018-08-17T01:31:47.168Z,93
2018-08-17T01:32:49.596Z,93
2018-08-17T01:33:51.623Z,93
2018-08-17T01:34:53.667Z,93
2018-08-17T01:35:55.705Z,93
2018-08-17T01:36:57.725Z,93
2018-08-17T01:37:59.765Z,94
2018-08-17T01:39:01.803Z,94
2018-08-17T01:40:03.848Z,94
2018-08-17T01:41:05.879Z,94
2018-08-17T01:42:08.191Z,94
2018-08-17T01:43:10.221Z,95
2018-08-17T01:44:12.247Z,95
2018-08-17T01:45:14.579Z,94
2018-08-17T01:46:16.603Z,94
2018-08-17T01:47:18.644Z,94
2018-08-17T01:48:20.679Z,95
2018-08-17T01:49:22.709Z,95
2018-08-17T01:50:24.754Z,95
2018-08-17T01:51:26.787Z,95
2018-08-17T01:52:28.821Z,95
2018-08-17T01:53:30.845Z,95
2018-08-17T01:54:33.200Z,95
2018-08-17T01:55:35.227Z,95
2018-08-17T01:56:37.256Z,96
2018-08-17T01:57:39.296Z,95
2018-08-17T01:58:41.321Z,95
2018-08-17T01:59:43.359Z,95
2018-08-17T02:00:45.398Z,95
2018-08-17T02:01:47.437Z,95
2018-08-17T02:02:49.462Z,95
2018-08-17T02:03:51.507Z,95
2018-08-17T02:04:53.544Z,95
2018-08-17T02:05:55.573Z,95
2018-08-17T02:06:57.617Z,95
2018-08-17T02:07:59.643Z,95
2018-08-17T02:09:01.673Z,95
2018-08-17T02:10:04.007Z,94
2018-08-17T02:11:06.037Z,95
2018-08-17T02:12:08.071Z,95
2018-08-17T02:13:10.104Z,95
2018-08-17T02:14:12.415Z,95
2018-08-17T02:15:14.455Z,95
2018-08-17T02:16:16.498Z,95
2018-08-17T02:17:18.538Z,95
2018-08-17T02:18:20.564Z,95
2018-08-17T02:19:22.604Z,95
2018-08-17T02:20:24.633Z,95
2018-08-17T02:21:26.670Z,95
2018-08-17T02:22:28.998Z,95
2018-08-17T02:23:31.323Z,95
2018-08-17T02:24:33.425Z,95
2018-08-17T02:25:35.388Z,95
2018-08-17T02:26:37.817Z,95
2018-08-17T02:27:39.839Z,96
2018-08-17T02:28:41.878Z,96
2018-08-17T02:29:43.918Z,95
2018-08-17T02:30:45.956Z,96
2018-08-17T02:31:48.287Z,95
2018-08-17T02:32:50.315Z,95
2018-08-17T02:33:52.338Z,96
2018-08-17T02:34:54.369Z,96
2018-08-17T02:35:56.414Z,96
2018-08-17T02:36:58.439Z,96
2018-08-17T02:38:00.475Z,96
2018-08-17T02:39:02.514Z,96
2018-08-17T02:40:04.823Z,96
2018-08-17T02:41:06.861Z,96
2018-08-17T02:42:08.907Z,96
2018-08-17T02:43:11.494Z,96
2018-08-17T02:44:13.533Z,96
2018-08-17T02:45:15.575Z,96
2018-08-17T02:46:17.619Z,96
2018-08-17T02:47:19.938Z,96
2018-08-17T02:48:21.975Z,96
2018-08-17T02:49:24.031Z,96
2018-08-17T02:50:26.351Z,96
2018-08-17T02:51:28.656Z,96
2018-08-17T02:52:30.704Z,97
2018-08-17T02:53:32.732Z,97
2018-08-17T02:54:34.771Z,97
2018-08-17T02:55:37.100Z,97
2018-08-17T02:56:39.124Z,97
2018-08-17T02:57:41.456Z,97
2018-08-17T02:58:44.085Z,97
2018-08-17T02:59:46.132Z,97
2018-08-17T03:00:48.837Z,97
2018-08-17T03:01:50.874Z,97
2018-08-17T03:02:53.624Z,97
2018-08-17T03:03:55.937Z,97
2018-08-17T03:04:57.984Z,97
2018-08-17T03:06:00.397Z,97
2018-08-17T03:07:02.428Z,97
2018-08-17T03:08:04.457Z,97
2018-08-17T03:09:06.504Z,97
2018-08-17T03:10:08.534Z,97
2018-08-17T03:11:10.569Z,97
2018-08-17T03:12:12.610Z,97
2018-08-17T03:13:15.692Z,97
2018-08-17T03:14:18.012Z,97
2018-08-17T03:15:20.051Z,97
2018-08-17T03:16:22.077Z,96
2018-08-17T03:17:24.502Z,97
2018-08-17T03:18:26.542Z,97
2018-08-17T03:19:28.575Z,97
2018-08-17T03:20:30.621Z,96
2018-08-17T03:21:32.651Z,96
2018-08-17T03:22:35.355Z,96
2018-08-17T03:23:37.385Z,96
2018-08-17T03:24:39.736Z,96
2018-08-17T03:25:41.765Z,96
2018-08-17T03:26:44.088Z,96
2018-08-17T03:27:46.114Z,96
2018-08-17T03:28:48.529Z,96
2018-08-17T03:29:51.171Z,96
2018-08-17T03:30:53.497Z,96
2018-08-17T03:31:55.843Z,96
2018-08-17T03:32:57.873Z,96
2018-08-17T03:34:00.222Z,96
2018-08-17T03:35:02.636Z,96
2018-08-17T03:36:05.046Z,96
2018-08-17T03:37:07.586Z,96
2018-08-17T03:38:10.014Z,96
2018-08-17T03:39:11.945Z,96
2018-08-17T03:40:13.987Z,96
2018-08-17T03:41:16.312Z,96
2018-08-17T03:42:18.337Z,96
2018-08-17T03:43:20.378Z,96
2018-08-17T03:44:22.417Z,96
2018-08-17T03:45:24.745Z,96
2018-08-17T03:46:27.071Z,96
2018-08-17T03:47:29.102Z,96
2018-08-17T03:48:31.133Z,96
2018-08-17T03:49:33.176Z,96
2018-08-17T03:50:35.204Z,96
2018-08-17T03:51:37.233Z,96
2018-08-17T03:52:39.559Z,96
2018-08-17T03:53:41.866Z,96
2018-08-17T03:54:43.904Z,96
2018-08-17T03:55:45.943Z,97
2018-08-17T03:56:47.980Z,96
2018-08-17T03:57:50.013Z,97
2018-08-17T03:58:52.062Z,97
2018-08-17T03:59:54.088Z,97
2018-08-17T04:00:56.117Z,96
2018-08-17T04:01:58.144Z,96
2018-08-17T04:03:00.186Z,97
2018-08-17T04:04:02.219Z,97
2018-08-17T04:05:04.256Z,97
2018-08-17T04:06:06.279Z,97
2018-08-17T04:07:08.321Z,97
2018-08-17T04:08:10.352Z,97
2018-08-17T04:09:12.384Z,97
2018-08-17T04:10:14.426Z,97
2018-08-17T04:11:16.450Z,97
2018-08-17T04:12:18.498Z,97
2018-08-17T04:13:20.825Z,97
2018-08-17T04:14:23.249Z,97
2018-08-17T04:15:25.322Z,97
2018-08-17T04:16:27.675Z,98
2018-08-17T04:17:29.709Z,98
2018-08-17T04:18:31.737Z,98
2018-08-17T04:19:34.065Z,98
2018-08-17T04:20:36.381Z,98
2018-08-17T04:21:38.793Z,98
2018-08-17T04:22:40.837Z,97
2018-08-17T04:23:42.886Z,97
2018-08-17T04:24:44.898Z,97
2018-08-17T04:25:46.934Z,97
2018-08-17T04:26:48.963Z,97
2018-08-17T04:27:51.002Z,97
2018-08-17T04:28:53.049Z,97
2018-08-17T04:29:55.373Z,97
2018-08-17T04:30:57.396Z,98
2018-08-17T04:31:59.438Z,97
2018-08-17T04:33:01.470Z,97
2018-08-17T04:34:03.504Z,97
2018-08-17T04:35:05.544Z,96
2018-08-17T04:36:07.569Z,96
2018-08-17T04:37:09.610Z,96
2018-08-17T04:38:11.932Z,97
2018-08-17T04:39:14.556Z,96
2018-08-17T04:40:16.876Z,96
2018-08-17T04:41:18.906Z,96
2018-08-17T04:42:20.937Z,96
2018-08-17T04:43:22.983Z,97
2018-08-17T04:44:25.400Z,97
2018-08-17T04:45:27.718Z,97
2018-08-17T04:46:29.761Z,97
2018-08-17T04:47:31.802Z,97
2018-08-17T04:48:33.824Z,97
2018-08-17T04:49:35.861Z,97
2018-08-17T04:50:37.894Z,97
2018-08-17T04:51:39.923Z,97
2018-08-17T04:52:41.967Z,97
2018-08-17T04:53:43.995Z,97
2018-08-17T04:54:46.695Z,97
2018-08-17T04:55:48.742Z,97
2018-08-17T04:56:50.776Z,97
2018-08-17T04:57:52.808Z,97
2018-08-17T04:58:54.842Z,97
2018-08-17T04:59:56.873Z,97
2018-08-17T05:00:58.915Z,97
2018-08-17T05:02:00.959Z,97
2018-08-17T05:03:02.999Z,97
2018-08-17T05:04:05.608Z,97
2018-08-17T05:05:07.656Z,97
2018-08-17T05:06:09.689Z,97
2018-08-17T05:07:12.009Z,97
2018-08-17T05:08:14.088Z,97
2018-08-17T05:09:16.123Z,97
2018-08-17T05:10:18.176Z,97
2018-08-17T05:11:20.194Z,97
2018-08-17T05:12:22.243Z,97
2018-08-17T05:13:24.551Z,97
2018-08-17T05:14:26.590Z,96
2018-08-17T05:15:28.919Z,97
2018-08-17T05:16:31.241Z,97
2018-08-17T05:17:33.559Z,97
2018-08-17T05:18:35.597Z,97
2018-08-17T05:19:37.638Z,96
2018-08-17T05:20:39.995Z,96
2018-08-17T05:21:42.587Z,96
2018-08-17T05:22:44.920Z,96
2018-08-17T05:23:46.950Z,96
2018-08-17T05:24:48.984Z,96
2018-08-17T05:25:51.022Z,96
2018-08-17T05:26:53.053Z,96
2018-08-17T05:27:55.081Z,96
2018-08-17T05:28:57.127Z,96
2018-08-17T05:29:59.458Z,96
2018-08-17T05:31:02.160Z,96
2018-08-17T05:32:04.200Z,96
2018-08-17T05:33:06.234Z,96
2018-08-17T05:34:08.278Z,96
2018-08-17T05:35:10.314Z,96
2018-08-17T05:36:12.356Z,96
2018-08-17T05:37:14.381Z,96
2018-08-17T05:38:16.427Z,96
2018-08-17T05:39:18.458Z,95
2018-08-17T05:40:21.188Z,95
2018-08-17T05:41:23.231Z,95
2018-08-17T05:42:25.259Z,95
2018-08-17T05:43:27.304Z,95
2018-08-17T05:44:29.726Z,95
2018-08-17T05:45:31.772Z,95
2018-08-17T05:46:33.802Z,94
2018-08-17T05:47:35.841Z,94
2018-08-17T05:48:37.886Z,94
2018-08-17T05:49:39.919Z,93
2018-08-17T05:50:41.975Z,93
2018-08-17T05:51:44.018Z,93
2018-08-17T05:52:46.030Z,92
2018-08-17T05:53:48.064Z,92
2018-08-17T05:54:50.803Z,92
2018-08-17T05:55:53.227Z,92
2018-08-17T05:56:55.269Z,92
2018-08-17T05:57:57.311Z,92
2018-08-17T05:58:59.338Z,92
2018-08-17T06:00:01.380Z,92
2018-08-17T06:01:03.723Z,92
2018-08-17T06:02:05.748Z,91
2018-08-17T06:03:08.094Z,91
2018-08-17T06:04:10.138Z,91
2018-08-17T06:05:12.557Z,91
2018-08-17T06:06:14.885Z,91
2018-08-17T06:07:16.918Z,91
2018-08-17T06:08:18.948Z,90
2018-08-17T06:09:20.982Z,90
2018-08-17T06:10:23.028Z,90
2018-08-17T06:11:26.311Z,90
2018-08-17T06:12:28.203Z,90
2018-08-17T06:13:30.237Z,90
2018-08-17T06:14:32.275Z,89
2018-08-17T06:15:34.317Z,89
2018-08-17T06:16:36.639Z,88
2018-08-17T06:17:38.683Z,88
2018-08-17T06:18:40.708Z,88
2018-08-17T06:19:43.045Z,88
2018-08-17T06:20:45.077Z,88
2018-08-17T06:21:47.109Z,87
2018-08-17T06:22:49.151Z,87
2018-08-17T06:23:51.181Z,87
2018-08-17T06:24:53.224Z,88
2018-08-17T06:25:55.270Z,88
2018-08-17T06:26:57.631Z,88
2018-08-17T06:27:59.666Z,87
2018-08-17T06:29:01.703Z,88
2018-08-17T06:30:03.741Z,88
2018-08-17T06:31:06.051Z,87
2018-08-17T06:32:08.663Z,87
2018-08-17T06:33:11.077Z,86
2018-08-17T06:34:13.126Z,85
2018-08-17T06:35:15.158Z,85
2018-08-17T06:36:17.206Z,84
2018-08-17T06:37:20.103Z,84
2018-08-17T06:38:22.047Z,84
2018-08-17T06:39:24.390Z,83
2018-08-17T06:40:26.740Z,83
2018-08-17T06:41:29.059Z,83
2018-08-17T06:42:31.096Z,83
2018-08-17T06:43:33.140Z,83
2018-08-17T06:44:35.169Z,82
2018-08-17T06:45:37.209Z,82
2018-08-17T06:46:39.540Z,82
2018-08-17T06:47:41.849Z,82
2018-08-17T06:48:43.898Z,82
2018-08-17T06:49:45.930Z,83
2018-08-17T06:50:48.088Z,82
2018-08-17T06:51:50.480Z,80
2018-08-17T06:52:52.527Z,81
2018-08-17T06:53:54.560Z,81
2018-08-17T06:54:56.595Z,79
2018-08-17T06:55:58.637Z,79
2018-08-17T06:57:00.723Z,79
2018-08-17T06:58:03.004Z,79
2018-08-17T06:59:05.051Z,78
2018-08-17T07:00:07.097Z,79
2018-08-17T07:01:09.128Z,78
2018-08-17T07:02:11.170Z,78
2018-08-17T07:03:13.214Z,78
2018-08-17T07:04:15.249Z,78
2018-08-17T07:05:17.302Z,78
2018-08-17T07:06:19.333Z,78
2018-08-17T07:07:21.369Z,78
2018-08-17T07:08:23.701Z,78
2018-08-17T07:09:26.092Z,77
2018-08-17T07:10:28.056Z,77
2018-08-17T07:11:30.374Z,78
2018-08-17T07:12:32.416Z,78
2018-08-17T07:13:34.449Z,78
2018-08-17T07:14:36.776Z,78
2018-08-17T07:15:38.819Z,79
2018-08-17T07:16:40.952Z,80
2018-08-17T07:17:42.891Z,80
2018-08-17T07:18:45.215Z,80
2018-08-17T07:19:47.256Z,79
2018-08-17T07:20:49.297Z,79
2018-08-17T07:21:51.648Z,79
2018-08-17T07:22:53.684Z,78
2018-08-17T07:23:55.731Z,79
2018-08-17T07:24:57.760Z,79
2018-08-17T07:26:00.101Z,80
2018-08-17T07:27:02.421Z,80
2018-08-17T07:28:04.512Z,80
2018-08-17T07:29:07.241Z,80
2018-08-17T07:30:09.657Z,80
2018-08-17T07:31:11.990Z,80
2018-08-17T07:32:14.423Z,80
2018-08-17T07:33:16.782Z,81
2018-08-17T07:34:18.813Z,81
2018-08-17T07:35:20.863Z,81
2018-08-17T07:36:23.189Z,81
2018-08-17T07:37:25.221Z,81
2018-08-17T07:38:27.289Z,81
2018-08-17T07:39:29.607Z,81
2018-08-17T07:40:31.645Z,81
2018-08-17T07:41:33.710Z,81
2018-08-17T07:42:35.727Z,81
2018-08-17T07:43:37.766Z,80
2018-08-17T07:44:40.214Z,81
2018-08-17T07:45:42.247Z,80
2018-08-17T07:46:44.291Z,81
2018-08-17T07:47:46.363Z,81
2018-08-17T07:48:48.388Z,79
2018-08-17T07:49:50.427Z,79
2018-08-17T07:50:52.454Z,79
2018-08-17T07:51:54.501Z,80
2018-08-17T07:52:56.544Z,80
2018-08-17T07:53:58.866Z,80
2018-08-17T07:55:00.918Z,80
2018-08-17T07:56:02.951Z,78
2018-08-17T07:57:04.994Z,80
2018-08-17T07:58:07.415Z,79
2018-08-17T07:59:09.651Z,79
2018-08-17T08:00:11.911Z,79
2018-08-17T08:01:14.327Z,80
2018-08-17T08:02:16.375Z,80
2018-08-17T08:03:18.404Z,80
2018-08-17T08:04:20.449Z,78
2018-08-17T08:05:22.491Z,78
2018-08-17T08:06:24.547Z,79
2018-08-17T08:07:26.864Z,78
2018-08-17T08:08:28.911Z,79
2018-08-17T08:09:31.541Z,78
2018-08-17T08:10:33.932Z,77
2018-08-17T08:11:35.987Z,77
2018-08-17T08:12:38.026Z,76
2018-08-17T08:13:40.200Z,75
2018-08-17T08:14:42.168Z,74
2018-08-17T08:15:44.197Z,75
2018-08-17T08:16:46.569Z,73
2018-08-17T08:17:48.621Z,73
2018-08-17T08:18:50.657Z,73
2018-08-17T08:19:52.702Z,73
2018-08-17T08:20:54.751Z,73
2018-08-17T08:21:56.801Z,72
2018-08-17T08:22:58.829Z,72
2018-08-17T08:24:00.882Z,71
2018-08-17T08:25:02.916Z,70
2018-08-17T08:26:04.974Z,69
2018-08-17T08:27:07.007Z,68
2018-08-17T08:28:09.035Z,68
2018-08-17T08:29:11.471Z,68
2018-08-17T08:30:13.506Z,67
2018-08-17T08:31:15.557Z,65
2018-08-17T08:32:17.639Z,65
2018-08-17T08:33:20.024Z,66
2018-08-17T08:34:22.070Z,64
2018-08-17T08:35:24.115Z,64
2018-08-17T08:36:26.489Z,65
2018-08-17T08:37:28.486Z,65
2018-08-17T08:38:30.816Z,64
2018-08-17T08:39:32.856Z,64
2018-08-17T08:40:34.909Z,65
2018-08-17T08:41:36.952Z,64
2018-08-17T08:42:38.999Z,63
2018-08-17T08:43:41.432Z,63
2018-08-17T08:44:43.751Z,64
2018-08-17T08:45:45.818Z,63
2018-08-17T08:46:48.137Z,62
2018-08-17T08:47:50.453Z,63
2018-08-17T08:48:52.502Z,65
2018-08-17T08:49:54.554Z,65
2018-08-17T08:50:56.981Z,65
2018-08-17T08:51:59.030Z,65
2018-08-17T08:53:01.079Z,65
2018-08-17T08:54:03.684Z,67
2018-08-17T08:55:06.005Z,66
2018-08-17T08:56:08.146Z,68
2018-08-17T08:57:10.764Z,67
2018-08-17T08:58:12.818Z,66
2018-08-17T08:59:14.864Z,66
2018-08-17T09:00:17.289Z,66
2018-08-17T09:01:19.761Z,66
2018-08-17T09:02:21.777Z,66
2018-08-17T09:03:23.832Z,66
2018-08-17T09:04:25.863Z,66
2018-08-17T09:05:27.912Z,65
2018-08-17T09:06:29.968Z,66
2018-08-17T09:07:32.400Z,66
2018-08-17T09:08:34.442Z,65
2018-08-17T09:09:36.498Z,66
2018-08-17T09:10:38.538Z,64
2018-08-17T09:11:40.580Z,65
2018-08-17T09:12:42.621Z,65
2018-08-17T09:13:45.211Z,64
2018-08-17T09:14:47.191Z,65
2018-08-17T09:15:49.238Z,65
2018-08-17T09:16:51.572Z,65
2018-08-17T09:17:53.603Z,65
2018-08-17T09:18:55.655Z,65
2018-08-17T09:19:57.707Z,65
2018-08-17T09:21:00.025Z,65
2018-08-17T09:22:02.372Z,64
2018-08-17T09:23:04.705Z,65
2018-08-17T09:24:07.448Z,63
2018-08-17T09:25:09.501Z,63
2018-08-17T09:26:11.542Z,63
2018-08-17T09:27:13.588Z,63
2018-08-17T09:28:16.197Z,64
2018-08-17T09:29:18.333Z,64
2018-08-17T09:30:20.294Z,64
2018-08-17T09:31:22.728Z,64
2018-08-17T09:32:24.775Z,64
2018-08-17T09:33:26.811Z,64
2018-08-17T09:34:28.864Z,65
2018-08-17T09:35:31.300Z,66
2018-08-17T09:36:33.654Z,66
2018-08-17T09:37:35.692Z,64
2018-08-17T09:38:37.748Z,63
2018-08-17T09:39:39.790Z,64
2018-08-17T09:40:41.830Z,64
2018-08-17T09:41:43.935Z,64
2018-08-17T09:42:45.924Z,61
2018-08-17T09:43:47.977Z,61
2018-08-17T09:44:50.009Z,62
2018-08-17T09:45:52.351Z,61
2018-08-17T09:46:54.410Z,63
2018-08-17T09:47:56.447Z,62
2018-08-17T09:48:58.495Z,62
2018-08-17T09:50:00.544Z,63
2018-08-17T09:51:02.587Z,62
2018-08-17T09:52:04.920Z,61
2018-08-17T09:53:06.969Z,62
2018-08-17T09:54:09.297Z,60
2018-08-17T09:55:11.346Z,59
2018-08-17T09:56:13.399Z,59
2018-08-17T09:57:15.444Z,60
2018-08-17T09:58:17.889Z,61
2018-08-17T09:59:20.211Z,61
2018-08-17T10:00:22.250Z,61
2018-08-17T10:01:24.294Z,60
2018-08-17T10:02:26.350Z,60
2018-08-17T10:03:28.816Z,60
2018-08-17T10:04:31.422Z,60
2018-08-17T10:05:33.467Z,59
2018-08-17T10:06:35.509Z,58
2018-08-17T10:07:37.852Z,58
2018-08-17T10:08:39.892Z,59
2018-08-17T10:09:41.949Z,58
2018-08-17T10:10:43.984Z,58
2018-08-17T10:11:46.041Z,58
2018-08-17T10:12:48.083Z,58
2018-08-17T10:13:50.127Z,58
2018-08-17T10:14:52.183Z,57
2018-08-17T10:15:54.317Z,57
2018-08-17T10:16:56.267Z,58
2018-08-17T10:17:58.704Z,56
2018-08-17T10:19:00.751Z,55
2018-08-17T10:20:03.454Z,55
2018-08-17T10:21:05.629Z,54
2018-08-17T10:22:09.440Z,53
2018-08-17T10:23:11.705Z,53
2018-08-17T10:24:13.742Z,53
2018-08-17T10:25:15.794Z,52
2018-08-17T10:26:17.843Z,51
2018-08-17T10:27:20.271Z,51
2018-08-17T10:28:22.321Z,51
2018-08-17T10:29:24.755Z,51
2018-08-17T10:30:26.806Z,51
2018-08-17T10:31:28.854Z,51
2018-08-17T10:32:31.197Z,51
2018-08-17T10:33:33.241Z,49
2018-08-17T10:34:35.580Z,48
2018-08-17T10:35:37.647Z,48
2018-08-17T10:36:39.687Z,50
2018-08-17T10:37:42.026Z,50
2018-08-17T10:38:44.076Z,51
2018-08-17T10:39:46.122Z,51
2018-08-17T10:40:48.612Z,51
2018-08-17T10:41:51.025Z,51
2018-08-17T10:42:53.372Z,50
2018-08-17T10:43:55.411Z,51
2018-08-17T10:44:57.473Z,50
2018-08-17T10:45:59.521Z,50
2018-08-17T10:47:01.568Z,50
2018-08-17T10:48:03.622Z,50
2018-08-17T10:49:05.678Z,50
2018-08-17T10:50:08.017Z,50
2018-08-17T10:51:10.075Z,48
2018-08-17T10:52:12.138Z,49
2018-08-17T10:53:14.458Z,49
2018-08-17T10:54:16.514Z,49
2018-08-17T10:55:18.855Z,49
2018-08-17T10:56:20.900Z,49
2018-08-17T10:57:22.972Z,49
2018-08-17T10:58:25.005Z,48
2018-08-17T10:59:27.333Z,48
2018-08-17T11:00:29.397Z,49
2018-08-17T11:01:31.449Z,49
2018-08-17T11:02:33.491Z,48
2018-08-17T11:03:35.543Z,48
2018-08-17T11:04:37.598Z,48
2018-08-17T11:05:39.650Z,49
2018-08-17T11:06:42.281Z,48
2018-08-17T11:07:44.340Z,48
2018-08-17T11:08:46.672Z,47
2018-08-17T11:09:48.736Z,47
2018-08-17T11:10:51.488Z,47
2018-08-17T11:11:53.804Z,48
2018-08-17T11:12:56.155Z,47
2018-08-17T11:13:58.488Z,47
2018-08-17T11:15:00.546Z,48
2018-08-17T11:16:02.591Z,49
2018-08-17T11:17:04.711Z,48
2018-08-17T11:18:06.703Z,47
2018-08-17T11:19:08.757Z,47
2018-08-17T11:20:11.123Z,48
2018-08-17T11:21:13.169Z,47
2018-08-17T11:22:15.236Z,48
2018-08-17T11:23:17.286Z,47
2018-08-17T11:24:19.616Z,48
2018-08-17T11:25:21.669Z,49
2018-08-17T11:26:24.040Z,50
2018-08-17T11:27:26.074Z,49
2018-08-17T11:28:28.130Z,50
2018-08-17T11:29:30.183Z,50
2018-08-17T11:30:32.234Z,50
2018-08-17T11:31:34.286Z,50
2018-08-17T11:32:36.350Z,49
2018-08-17T11:33:38.390Z,49
2018-08-17T11:34:40.448Z,50
2018-08-17T11:35:42.514Z,50
2018-08-17T11:36:44.570Z,51
2018-08-17T11:37:46.618Z,51
2018-08-17T11:38:48.678Z,51
2018-08-17T11:39:51.123Z,52
2018-08-17T11:40:53.184Z,52
2018-08-17T11:41:55.227Z,52
2018-08-17T11:42:57.597Z,52
2018-08-17T11:43:59.647Z,52
2018-08-17T11:45:01.986Z,52
2018-08-17T11:46:04.331Z,53
2018-08-17T11:47:06.376Z,53
2018-08-17T11:48:08.435Z,53
2018-08-17T11:49:10.865Z,53
2018-08-17T11:50:12.929Z,53
2018-08-17T11:51:14.973Z,52
2018-08-17T11:52:17.034Z,53
2018-08-17T11:53:19.092Z,52
2018-08-17T11:54:21.143Z,53
2018-08-17T11:55:23.595Z,53
2018-08-17T11:56:25.641Z,53
2018-08-17T11:57:27.687Z,53
2018-08-17T11:58:29.735Z,53
2018-08-17T11:59:31.799Z,53
2018-08-17T12:00:34.158Z,53
2018-08-17T12:01:36.204Z,53
2018-08-17T12:02:38.269Z,53
2018-08-17T12:03:40.595Z,51
2018-08-17T12:04:42.653Z,51
2018-08-17T12:05:44.994Z,50
2018-08-17T12:06:47.472Z,50
2018-08-17T12:07:49.833Z,51
2018-08-17T12:08:51.888Z,51
2018-08-17T12:09:53.940Z,51
2018-08-17T12:10:55.996Z,52
2018-08-17T12:11:58.045Z,51
2018-08-17T12:13:00.095Z,50
2018-08-17T12:14:02.140Z,50
2018-08-17T12:15:04.473Z,51
2018-08-17T12:16:06.539Z,51
2018-08-17T12:17:08.587Z,50
2018-08-17T12:18:10.642Z,51
2018-08-17T12:19:12.982Z,51
2018-08-17T12:20:15.024Z,51
2018-08-17T12:21:17.372Z,51
2018-08-17T12:22:19.418Z,51
2018-08-17T12:23:21.480Z,50
2018-08-17T12:24:24.799Z,50
2018-08-17T12:25:27.000Z,50
2018-08-17T12:26:29.341Z,49
2018-08-17T12:27:31.395Z,49
2018-08-17T12:28:33.455Z,49
2018-08-17T12:29:35.497Z,49
2018-08-17T12:30:37.873Z,49
2018-08-17T12:31:40.221Z,49
2018-08-17T12:32:42.286Z,50
2018-08-17T12:33:44.623Z,48
2018-08-17T12:34:46.679Z,50
2018-08-17T12:35:48.737Z,50
2018-08-17T12:36:50.781Z,49
2018-08-17T12:37:52.837Z,48
2018-08-17T12:38:54.897Z,48
2018-08-17T12:39:57.257Z,48
2018-08-17T12:40:59.895Z,49
2018-08-17T12:42:01.959Z,48
2018-08-17T12:43:04.294Z,49
2018-08-17T12:44:06.355Z,50
2018-08-17T12:45:08.401Z,49
2018-08-17T12:46:10.447Z,50
2018-08-17T12:47:12.495Z,51
2018-08-17T12:48:14.560Z,51
2018-08-17T12:49:16.603Z,50
2018-08-17T12:50:18.658Z,50
2018-08-17T12:51:20.714Z,49
2018-08-17T12:52:22.844Z,49
2018-08-17T12:53:24.814Z,49
2018-08-17T12:54:26.876Z,49
2018-08-17T12:55:29.204Z,48
2018-08-17T12:56:31.267Z,49
2018-08-17T12:57:33.312Z,50
2018-08-17T12:58:35.371Z,50
2018-08-17T12:59:37.430Z,50
2018-08-17T13:00:39.480Z,51
2018-08-17T13:01:41.545Z,51
2018-08-17T13:02:43.594Z,51
2018-08-17T13:03:45.641Z,50
2018-08-17T13:04:54.798Z,52
2018-08-17T13:06:04.400Z,52
2018-08-17T13:07:08.610Z,53
2018-08-17T13:08:10.662Z,52
2018-08-17T13:09:13.074Z,52
2018-08-17T13:10:15.115Z,52
2018-08-17T13:11:17.177Z,52
2018-08-17T13:12:19.237Z,53
2018-08-17T13:13:21.555Z,53
2018-08-17T13:14:23.608Z,53
2018-08-17T13:15:25.665Z,54
2018-08-17T13:16:27.722Z,55
2018-08-17T13:17:30.075Z,56
2018-08-17T13:18:32.123Z,57
2018-08-17T13:19:34.455Z,57
2018-08-17T13:20:36.500Z,57
2018-08-17T13:21:38.563Z,59
2018-08-17T13:22:40.602Z,58
2018-08-17T13:23:42.655Z,59
2018-08-17T13:24:44.701Z,58
2018-08-17T13:25:47.409Z,59
2018-08-17T13:26:49.474Z,59
2018-08-17T13:27:51.800Z,59
2018-08-17T13:28:53.853Z,58
2018-08-17T13:29:56.981Z,58
2018-08-17T13:30:59.400Z,59
2018-08-17T13:32:02.222Z,59
2018-08-17T13:33:04.261Z,60
2018-08-17T13:34:06.311Z,60
2018-08-17T13:35:08.350Z,60
2018-08-17T13:36:11.216Z,60
2018-08-17T13:37:13.240Z,60
2018-08-17T13:38:15.572Z,59
2018-08-17T13:39:17.606Z,60
2018-08-17T13:40:19.660Z,59
2018-08-17T13:41:21.709Z,59
2018-08-17T13:42:23.834Z,59
2018-08-17T13:43:25.810Z,58
2018-08-17T13:44:27.852Z,59
2018-08-17T13:45:29.893Z,59
2018-08-17T13:46:31.945Z,59
2018-08-17T13:47:33.985Z,59
2018-08-17T13:48:36.424Z,59
2018-08-17T13:49:38.460Z,59
2018-08-17T13:50:40.501Z,59
2018-08-17T13:51:42.554Z,61
2018-08-17T13:52:44.913Z,59
2018-08-17T13:53:46.966Z,58
2018-08-17T13:54:48.999Z,59
2018-08-17T13:55:51.443Z,60
2018-08-17T13:56:53.479Z,60
2018-08-17T13:57:55.804Z,59
2018-08-17T13:58:58.239Z,59
2018-08-17T14:00:00.277Z,59
2018-08-17T14:01:02.320Z,60
2018-08-17T14:02:04.406Z,59
2018-08-17T14:03:06.411Z,60
2018-08-17T14:04:08.447Z,59
2018-08-17T14:05:10.501Z,60
2018-08-17T14:06:12.835Z,60
2018-08-17T14:07:14.875Z,60
2018-08-17T14:08:17.436Z,61
2018-08-17T14:09:19.441Z,61
2018-08-17T14:10:21.489Z,62
2018-08-17T14:11:23.538Z,62
2018-08-17T14:12:25.851Z,62
2018-08-17T14:13:27.915Z,62
2018-08-17T14:14:29.957Z,64
2018-08-17T14:15:32.005Z,63
2018-08-17T14:16:34.050Z,64
2018-08-17T14:17:36.474Z,64
2018-08-17T14:18:38.512Z,64
2018-08-17T14:19:40.849Z,63
2018-08-17T14:20:42.892Z,63
2018-08-17T14:21:45.029Z,63
2018-08-17T14:22:47.071Z,63
2018-08-17T14:23:49.109Z,63
2018-08-17T14:24:51.437Z,64
2018-08-17T14:25:53.482Z,64
2018-08-17T14:26:55.531Z,66
2018-08-17T14:27:57.568Z,68
2018-08-17T14:28:59.686Z,68
2018-08-17T14:30:01.655Z,67
2018-08-17T14:31:04.013Z,68
2018-08-17T14:32:06.060Z,69
2018-08-17T14:33:08.091Z,69
2018-08-17T14:34:10.561Z,70
2018-08-17T14:35:12.637Z,71
2018-08-17T14:36:14.633Z,73
2018-08-17T14:37:16.948Z,73
2018-08-17T14:38:18.996Z,71
2018-08-17T14:39:21.049Z,73
2018-08-17T14:40:23.140Z,72
2018-08-17T14:41:25.131Z,71
2018-08-17T14:42:27.171Z,74
2018-08-17T14:43:29.210Z,72
2018-08-17T14:44:31.632Z,73
2018-08-17T14:45:33.684Z,72
2018-08-17T14:46:35.716Z,74